Kremlin, MT (59532)

7:59 AM MDT on October 22, 2014 (GMT -0600)
MesoWest FORT ASSINIBOINE #1 MT US SCAN | Change Station
CLOSE
Current Station
Personal Weather Station
Location: Havre, MT
Elevation: 2709 ft
Nearby Weather Stations

Elev 2709 ft 48.48 °N, 109.80 °W | Updated 59 minutes ago

Overcast
Overcast
44 °F
Feels Like 37 °F
N
14
Wind Variable Wind from SW
Gusts 0.0 mph

Today
High -- | Low -- °F
--% Chance of Precip.
Yesterday
High -- | Low -- °F
Precip. -- in
7:50 AM 6:17 PM
Waning Crescent, 2% visible
Pressure 29.91 in
Visibility 10.0 miles
Clouds Clear
Windchill 37 °F
Dew Point 37 °F
Humidity 75%
Rainfall -999.00 in
Snow Depth Not available.
UV 0 out of 12
Pollen 3.60 out of 12
Air Quality Not available.
Flu Activity No Activity
METAR KHVR 221353Z AUTO 22016KT 10SM CLR 07/02 A2988 RMK AO2 SLP127 T00670022

More Conditions Fewer Conditions

Pressure 29.91 in
Visibility 10.0 miles
Clouds Clear
Windchill 37 °F
Dew Point 37 °F
Humidity 75%
Rainfall -999.00 in
Snow Depth Not available.
UV 0 out of 12
Pollen 3.60 out of 12
Air Quality Not available.
Flu Activity No Activity
METAR KHVR 221353Z AUTO 22016KT 10SM CLR 07/02 A2988 RMK AO2 SLP127 T00670022

More Conditions Fewer Conditions

10-Day Weather Forecast

Almanac

Astronomy

Oct. 22, 2014 Rise Set
Actual Time 7:50 AM MDT 6:17 PM MDT
Civil Twilight 7:18 AM MDT 6:49 PM MDT
Nautical Twilight 6:42 AM MDT 7:26 PM MDT
Astronomical Twilight 6:05 AM MDT 8:02 PM MDT
Moon 6:29 AM MDT 5:49 PM MDT
Length of Visible Light 11h 30m
Length of Day
10h 26m
Tomorrow will be 3m 22s shorter.
Waning Crescent, 2% of the Moon is Illuminated
Today
Waning Crescent
Oct 23
New
Oct 30
First Quarter
Nov 6
Full
Nov 14
Last Quarter

Today's Extremes

State Highs State Lows

Community

WunderPhotos

Upload Photos

1,763,919 photos uploaded!

Nearby

Snow Depth

Station Depth Elevation
Rocky Boy 0 in 4700 ft
Stringer Creek 0 in 6550 ft
Onion Park 0 in 7410 ft
Deadman Creek 0 in 6450 ft
Crystal Lake 1 in 6050 ft

Earthquake Activity

City Distance Mag. Time & Date
No recent earthquake activity has been reported nearby.
Minimum magnitude displayed is 2.5.

Coastal Water Temperatures

Place Temperature
No Stations Reporting

Nearby Weather Stations